sensor_id;sensor_type;location;lat;lon;timestamp;temperature;humidity
55203;DHT22;41077;52.956;6.796;2023-07-28T00:01:25;18.10;99.90
55203;DHT22;41077;52.956;6.796;2023-07-28T00:03:50;18.10;99.90
55203;DHT22;41077;52.956;6.796;2023-07-28T00:06:16;18.10;99.90
55203;DHT22;41077;52.956;6.796;2023-07-28T00:08:42;18.10;99.90
55203;DHT22;41077;52.956;6.796;2023-07-28T00:11:11;18.10;99.90
55203;DHT22;41077;52.956;6.796;2023-07-28T00:13:41;18.20;99.90
55203;DHT22;41077;52.956;6.796;2023-07-28T00:16:07;18.10;99.90
55203;DHT22;41077;52.956;6.796;2023-07-28T00:18:33;18.20;99.90
55203;DHT22;41077;52.956;6.796;2023-07-28T00:20:59;18.10;99.90
55203;DHT22;41077;52.956;6.796;2023-07-28T00:23:25;18.20;99.90
55203;DHT22;41077;52.956;6.796;2023-07-28T00:25:51;18.10;99.90
55203;DHT22;41077;52.956;6.796;2023-07-28T00:28:17;18.30;99.90
55203;DHT22;41077;52.956;6.796;2023-07-28T00:30:43;18.20;99.90
55203;DHT22;41077;52.956;6.796;2023-07-28T00:33:08;18.20;99.90
55203;DHT22;41077;52.956;6.796;2023-07-28T00:35:34;18.20;99.90
55203;DHT22;41077;52.956;6.796;2023-07-28T00:38:00;18.10;99.90
55203;DHT22;41077;52.956;6.796;2023-07-28T00:40:26;18.20;99.90
55203;DHT22;41077;52.956;6.796;2023-07-28T00:42:51;18.20;99.90
55203;DHT22;41077;52.956;6.796;2023-07-28T00:45:17;18.20;99.90
55203;DHT22;41077;52.956;6.796;2023-07-28T00:47:43;18.10;99.90
55203;DHT22;41077;52.956;6.796;2023-07-28T00:50:09;18.10;99.90
55203;DHT22;41077;52.956;6.796;2023-07-28T00:52:36;18.20;99.90
55203;DHT22;41077;52.956;6.796;2023-07-28T00:55:02;18.20;99.90
55203;DHT22;41077;52.956;6.796;2023-07-28T00:57:28;18.10;99.90
55203;DHT22;41077;52.956;6.796;2023-07-28T00:59:54;18.20;99.90
55203;DHT22;41077;52.956;6.796;2023-07-28T01:02:20;18.10;99.90
55203;DHT22;41077;52.956;6.796;2023-07-28T01:04:47;18.10;99.90
55203;DHT22;41077;52.956;6.796;2023-07-28T01:07:36;18.10;99.90
55203;DHT22;41077;52.956;6.796;2023-07-28T01:10:08;18.10;99.90
55203;DHT22;41077;52.956;6.796;2023-07-28T01:12:36;18.20;99.90
55203;DHT22;41077;52.956;6.796;2023-07-28T01:15:01;18.20;99.90
55203;DHT22;41077;52.956;6.796;2023-07-28T01:17:27;18.20;99.90
55203;DHT22;41077;52.956;6.796;2023-07-28T01:19:53;18.20;99.90
55203;DHT22;41077;52.956;6.796;2023-07-28T01:25:24;18.20;99.90
55203;DHT22;41077;52.956;6.796;2023-07-28T01:27:54;18.20;99.90
55203;DHT22;41077;52.956;6.796;2023-07-28T01:30:20;18.20;99.90
55203;DHT22;41077;52.956;6.796;2023-07-28T01:32:47;18.20;99.90
55203;DHT22;41077;52.956;6.796;2023-07-28T01:35:13;18.10;99.90
55203;DHT22;41077;52.956;6.796;2023-07-28T01:37:38;18.10;99.90
55203;DHT22;41077;52.956;6.796;2023-07-28T01:40:04;18.10;99.90
55203;DHT22;41077;52.956;6.796;2023-07-28T01:42:30;18.20;99.90
55203;DHT22;41077;52.956;6.796;2023-07-28T01:44:56;18.20;99.90
55203;DHT22;41077;52.956;6.796;2023-07-28T01:47:21;18.10;99.90
55203;DHT22;41077;52.956;6.796;2023-07-28T01:49:47;18.20;99.90
55203;DHT22;41077;52.956;6.796;2023-07-28T01:52:13;18.20;99.90
55203;DHT22;41077;52.956;6.796;2023-07-28T01:54:38;18.10;99.90
55203;DHT22;41077;52.956;6.796;2023-07-28T01:57:04;18.10;99.90
55203;DHT22;41077;52.956;6.796;2023-07-28T01:59:30;18.10;99.90
55203;DHT22;41077;52.956;6.796;2023-07-28T02:01:55;18.10;99.90
55203;DHT22;41077;52.956;6.796;2023-07-28T02:04:21;18.10;99.90
55203;DHT22;41077;52.956;6.796;2023-07-28T02:06:47;18.10;99.90
55203;DHT22;41077;52.956;6.796;2023-07-28T02:09:12;18.10;99.90
55203;DHT22;41077;52.956;6.796;2023-07-28T02:11:38;18.20;99.90
55203;DHT22;41077;52.956;6.796;2023-07-28T02:14:04;18.10;99.90
55203;DHT22;41077;52.956;6.796;2023-07-28T02:16:30;18.10;99.90
55203;DHT22;41077;52.956;6.796;2023-07-28T02:18:57;18.10;99.90
55203;DHT22;41077;52.956;6.796;2023-07-28T02:21:23;18.10;99.90
55203;DHT22;41077;52.956;6.796;2023-07-28T02:23:49;18.10;99.90
55203;DHT22;41077;52.956;6.796;2023-07-28T02:26:14;18.20;99.90
55203;DHT22;41077;52.956;6.796;2023-07-28T02:28:40;18.10;99.90
55203;DHT22;41077;52.956;6.796;2023-07-28T02:31:06;18.10;99.90
55203;DHT22;41077;52.956;6.796;2023-07-28T02:33:31;18.10;99.90
55203;DHT22;41077;52.956;6.796;2023-07-28T02:36:01;18.10;99.90
55203;DHT22;41077;52.956;6.796;2023-07-28T02:38:26;18.10;99.90
55203;DHT22;41077;52.956;6.796;2023-07-28T02:40:53;18.10;99.90
55203;DHT22;41077;52.956;6.796;2023-07-28T02:43:18;18.10;99.90
55203;DHT22;41077;52.956;6.796;2023-07-28T02:45:48;18.10;99.90
55203;DHT22;41077;52.956;6.796;2023-07-28T02:48:14;18.20;99.90
55203;DHT22;41077;52.956;6.796;2023-07-28T02:50:45;18.10;99.90
55203;DHT22;41077;52.956;6.796;2023-07-28T02:53:11;18.10;99.90
55203;DHT22;41077;52.956;6.796;2023-07-28T02:55:41;18.10;99.90
55203;DHT22;41077;52.956;6.796;2023-07-28T02:58:07;18.10;99.90
55203;DHT22;41077;52.956;6.796;2023-07-28T03:00:33;18.20;99.90
55203;DHT22;41077;52.956;6.796;2023-07-28T03:02:59;18.10;99.90
55203;DHT22;41077;52.956;6.796;2023-07-28T03:05:24;18.20;99.90
55203;DHT22;41077;52.956;6.796;2023-07-28T03:07:50;18.10;99.90
55203;DHT22;41077;52.956;6.796;2023-07-28T03:10:16;18.20;99.90
55203;DHT22;41077;52.956;6.796;2023-07-28T03:12:42;18.20;99.90
55203;DHT22;41077;52.956;6.796;2023-07-28T03:15:08;18.10;99.90
55203;DHT22;41077;52.956;6.796;2023-07-28T03:17:34;18.10;99.90
55203;DHT22;41077;52.956;6.796;2023-07-28T03:19:59;18.20;99.90
55203;DHT22;41077;52.956;6.796;2023-07-28T03:22:25;18.10;99.90
55203;DHT22;41077;52.956;6.796;2023-07-28T03:24:51;18.20;99.90
55203;DHT22;41077;52.956;6.796;2023-07-28T03:27:16;18.20;99.90
55203;DHT22;41077;52.956;6.796;2023-07-28T03:29:43;18.10;99.90
55203;DHT22;41077;52.956;6.796;2023-07-28T03:32:08;18.10;99.90
55203;DHT22;41077;52.956;6.796;2023-07-28T03:34:34;18.10;99.90
55203;DHT22;41077;52.956;6.796;2023-07-28T03:36:59;18.10;99.90
55203;DHT22;41077;52.956;6.796;2023-07-28T03:39:25;18.10;99.90
55203;DHT22;41077;52.956;6.796;2023-07-28T03:41:51;18.10;99.90
55203;DHT22;41077;52.956;6.796;2023-07-28T03:44:16;18.10;99.90
55203;DHT22;41077;52.956;6.796;2023-07-28T03:46:45;18.10;99.90
55203;DHT22;41077;52.956;6.796;2023-07-28T03:49:10;18.10;99.90
55203;DHT22;41077;52.956;6.796;2023-07-28T03:51:36;18.10;99.90
55203;DHT22;41077;52.956;6.796;2023-07-28T03:54:02;18.10;99.90
55203;DHT22;41077;52.956;6.796;2023-07-28T03:56:27;18.10;99.90
55203;DHT22;41077;52.956;6.796;2023-07-28T03:58:53;18.10;99.90
55203;DHT22;41077;52.956;6.796;2023-07-28T04:01:19;18.10;99.90
55203;DHT22;41077;52.956;6.796;2023-07-28T04:03:47;18.10;99.90
55203;DHT22;41077;52.956;6.796;2023-07-28T04:06:13;18.10;99.90
55203;DHT22;41077;52.956;6.796;2023-07-28T04:08:39;18.20;99.90
55203;DHT22;41077;52.956;6.796;2023-07-28T04:11:05;18.10;99.90
55203;DHT22;41077;52.956;6.796;2023-07-28T04:13:31;18.10;99.90
55203;DHT22;41077;52.956;6.796;2023-07-28T04:15:57;18.10;99.90
55203;DHT22;41077;52.956;6.796;2023-07-28T04:18:23;18.10;99.90
55203;DHT22;41077;52.956;6.796;2023-07-28T04:20:49;18.10;99.90
55203;DHT22;41077;52.956;6.796;2023-07-28T04:23:14;18.10;99.90
55203;DHT22;41077;52.956;6.796;2023-07-28T04:25:40;18.10;99.90
55203;DHT22;41077;52.956;6.796;2023-07-28T04:28:05;18.10;99.90
55203;DHT22;41077;52.956;6.796;2023-07-28T04:30:31;18.10;99.90
55203;DHT22;41077;52.956;6.796;2023-07-28T04:32:57;18.10;99.90
55203;DHT22;41077;52.956;6.796;2023-07-28T04:35:22;18.10;99.90
55203;DHT22;41077;52.956;6.796;2023-07-28T04:37:48;18.10;99.90
55203;DHT22;41077;52.956;6.796;2023-07-28T04:40:14;18.20;99.90
55203;DHT22;41077;52.956;6.796;2023-07-28T04:42:40;18.20;99.90
55203;DHT22;41077;52.956;6.796;2023-07-28T04:45:06;18.20;99.90
55203;DHT22;41077;52.956;6.796;2023-07-28T04:47:32;18.20;99.90
55203;DHT22;41077;52.956;6.796;2023-07-28T04:49:57;18.20;99.90
55203;DHT22;41077;52.956;6.796;2023-07-28T04:52:23;18.20;99.90
55203;DHT22;41077;52.956;6.796;2023-07-28T04:54:49;18.20;99.90
55203;DHT22;41077;52.956;6.796;2023-07-28T04:57:15;18.20;99.90
55203;DHT22;41077;52.956;6.796;2023-07-28T04:59:40;18.20;99.90
55203;DHT22;41077;52.956;6.796;2023-07-28T05:02:07;18.20;99.90
55203;DHT22;41077;52.956;6.796;2023-07-28T05:04:33;18.20;99.90
55203;DHT22;41077;52.956;6.796;2023-07-28T05:06:58;18.30;99.90
55203;DHT22;41077;52.956;6.796;2023-07-28T05:09:24;18.30;99.90
55203;DHT22;41077;52.956;6.796;2023-07-28T05:11:50;18.30;99.90
55203;DHT22;41077;52.956;6.796;2023-07-28T05:14:15;18.30;99.90
55203;DHT22;41077;52.956;6.796;2023-07-28T05:16:41;18.20;99.90
55203;DHT22;41077;52.956;6.796;2023-07-28T05:19:07;18.20;99.90
55203;DHT22;41077;52.956;6.796;2023-07-28T05:21:35;18.30;99.90
55203;DHT22;41077;52.956;6.796;2023-07-28T05:24:01;18.30;99.90
55203;DHT22;41077;52.956;6.796;2023-07-28T05:26:26;18.30;99.90
55203;DHT22;41077;52.956;6.796;2023-07-28T05:28:52;18.30;99.90
55203;DHT22;41077;52.956;6.796;2023-07-28T05:31:18;18.30;99.90
55203;DHT22;41077;52.956;6.796;2023-07-28T05:33:43;18.40;99.90
55203;DHT22;41077;52.956;6.796;2023-07-28T05:36:09;18.40;99.90
55203;DHT22;41077;52.956;6.796;2023-07-28T05:38:35;18.40;99.90
55203;DHT22;41077;52.956;6.796;2023-07-28T05:41:01;18.50;99.90
55203;DHT22;41077;52.956;6.796;2023-07-28T05:43:29;18.40;99.90
55203;DHT22;41077;52.956;6.796;2023-07-28T05:45:56;18.40;99.90
55203;DHT22;41077;52.956;6.796;2023-07-28T05:48:21;18.40;99.90
55203;DHT22;41077;52.956;6.796;2023-07-28T05:50:47;18.50;99.90
55203;DHT22;41077;52.956;6.796;2023-07-28T05:53:13;18.50;99.90
55203;DHT22;41077;52.956;6.796;2023-07-28T05:55:40;18.50;99.90
55203;DHT22;41077;52.956;6.796;2023-07-28T05:58:05;18.50;99.90
55203;DHT22;41077;52.956;6.796;2023-07-28T06:00:31;18.50;99.90
55203;DHT22;41077;52.956;6.796;2023-07-28T06:02:57;18.50;99.90
55203;DHT22;41077;52.956;6.796;2023-07-28T06:05:22;18.50;99.90
55203;DHT22;41077;52.956;6.796;2023-07-28T06:07:48;18.50;99.90
55203;DHT22;41077;52.956;6.796;2023-07-28T06:10:14;18.60;99.90
55203;DHT22;41077;52.956;6.796;2023-07-28T06:12:39;18.60;99.90
55203;DHT22;41077;52.956;6.796;2023-07-28T06:15:05;18.50;99.90
55203;DHT22;41077;52.956;6.796;2023-07-28T06:17:31;18.50;99.90
55203;DHT22;41077;52.956;6.796;2023-07-28T06:19:57;18.60;99.90
55203;DHT22;41077;52.956;6.796;2023-07-28T06:22:23;18.50;99.90
55203;DHT22;41077;52.956;6.796;2023-07-28T06:24:49;18.50;99.90
55203;DHT22;41077;52.956;6.796;2023-07-28T06:27:14;18.50;99.90
55203;DHT22;41077;52.956;6.796;2023-07-28T06:29:40;18.50;99.90
55203;DHT22;41077;52.956;6.796;2023-07-28T06:32:06;18.50;99.90
55203;DHT22;41077;52.956;6.796;2023-07-28T06:34:32;18.50;99.90
55203;DHT22;41077;52.956;6.796;2023-07-28T06:36:58;18.60;99.90
55203;DHT22;41077;52.956;6.796;2023-07-28T06:39:24;18.60;99.90
55203;DHT22;41077;52.956;6.796;2023-07-28T06:41:50;18.60;99.90
55203;DHT22;41077;52.956;6.796;2023-07-28T06:44:16;18.60;99.90
55203;DHT22;41077;52.956;6.796;2023-07-28T06:46:42;18.70;99.90
55203;DHT22;41077;52.956;6.796;2023-07-28T06:49:07;18.70;99.90
55203;DHT22;41077;52.956;6.796;2023-07-28T06:51:33;18.70;99.90
55203;DHT22;41077;52.956;6.796;2023-07-28T06:53:59;18.70;99.90
55203;DHT22;41077;52.956;6.796;2023-07-28T06:56:25;18.80;99.90
55203;DHT22;41077;52.956;6.796;2023-07-28T06:58:50;18.90;99.90
55203;DHT22;41077;52.956;6.796;2023-07-28T07:01:16;18.90;99.90
55203;DHT22;41077;52.956;6.796;2023-07-28T07:03:43;19.00;99.90
55203;DHT22;41077;52.956;6.796;2023-07-28T07:06:09;19.10;99.90
55203;DHT22;41077;52.956;6.796;2023-07-28T07:08:34;19.00;99.90
55203;DHT22;41077;52.956;6.796;2023-07-28T07:11:00;19.10;99.90
55203;DHT22;41077;52.956;6.796;2023-07-28T07:13:26;19.10;99.90
55203;DHT22;41077;52.956;6.796;2023-07-28T07:15:52;19.20;99.90
55203;DHT22;41077;52.956;6.796;2023-07-28T07:18:17;19.20;99.90
55203;DHT22;41077;52.956;6.796;2023-07-28T07:20:43;19.30;99.90
55203;DHT22;41077;52.956;6.796;2023-07-28T07:23:09;19.40;99.90
55203;DHT22;41077;52.956;6.796;2023-07-28T07:25:35;19.40;99.90
55203;DHT22;41077;52.956;6.796;2023-07-28T07:28:01;19.50;99.90
55203;DHT22;41077;52.956;6.796;2023-07-28T07:30:27;19.60;99.90
55203;DHT22;41077;52.956;6.796;2023-07-28T07:32:52;19.60;99.90
55203;DHT22;41077;52.956;6.796;2023-07-28T07:35:18;19.70;99.90
55203;DHT22;41077;52.956;6.796;2023-07-28T07:37:44;19.90;99.90
55203;DHT22;41077;52.956;6.796;2023-07-28T07:40:11;19.90;99.90
55203;DHT22;41077;52.956;6.796;2023-07-28T07:42:41;19.90;99.90
55203;DHT22;41077;52.956;6.796;2023-07-28T07:45:09;20.00;99.90
55203;DHT22;41077;52.956;6.796;2023-07-28T07:47:35;20.00;99.90
55203;DHT22;41077;52.956;6.796;2023-07-28T07:50:01;20.00;99.90
55203;DHT22;41077;52.956;6.796;2023-07-28T07:52:26;20.10;99.90
55203;DHT22;41077;52.956;6.796;2023-07-28T07:54:52;20.30;99.90
55203;DHT22;41077;52.956;6.796;2023-07-28T07:57:18;20.20;99.90
55203;DHT22;41077;52.956;6.796;2023-07-28T07:59:43;20.20;99.90
55203;DHT22;41077;52.956;6.796;2023-07-28T08:02:09;20.10;99.90
55203;DHT22;41077;52.956;6.796;2023-07-28T08:04:35;20.10;99.90
55203;DHT22;41077;52.956;6.796;2023-07-28T08:07:02;20.30;99.90
55203;DHT22;41077;52.956;6.796;2023-07-28T08:09:29;20.50;99.90
55203;DHT22;41077;52.956;6.796;2023-07-28T08:11:55;20.60;99.90
55203;DHT22;41077;52.956;6.796;2023-07-28T08:14:21;20.60;99.90
55203;DHT22;41077;52.956;6.796;2023-07-28T08:16:47;20.50;99.90
55203;DHT22;41077;52.956;6.796;2023-07-28T08:19:12;20.50;99.90
55203;DHT22;41077;52.956;6.796;2023-07-28T08:21:38;20.50;99.90
55203;DHT22;41077;52.956;6.796;2023-07-28T08:24:04;20.50;99.90
55203;DHT22;41077;52.956;6.796;2023-07-28T08:26:30;20.50;99.90
55203;DHT22;41077;52.956;6.796;2023-07-28T08:28:56;20.50;99.90
55203;DHT22;41077;52.956;6.796;2023-07-28T08:31:21;20.60;99.90
55203;DHT22;41077;52.956;6.796;2023-07-28T08:33:47;20.50;99.90
55203;DHT22;41077;52.956;6.796;2023-07-28T08:36:13;20.60;99.90
55203;DHT22;41077;52.956;6.796;2023-07-28T08:38:38;20.80;99.90
55203;DHT22;41077;52.956;6.796;2023-07-28T08:41:04;20.90;99.90
55203;DHT22;41077;52.956;6.796;2023-07-28T08:43:31;21.00;99.90
55203;DHT22;41077;52.956;6.796;2023-07-28T08:45:57;21.10;99.90
55203;DHT22;41077;52.956;6.796;2023-07-28T08:48:23;21.20;99.90
55203;DHT22;41077;52.956;6.796;2023-07-28T08:50:49;21.30;99.90
55203;DHT22;41077;52.956;6.796;2023-07-28T08:53:17;21.40;99.90
55203;DHT22;41077;52.956;6.796;2023-07-28T08:55:42;21.30;99.90
55203;DHT22;41077;52.956;6.796;2023-07-28T09:00:41;21.40;99.90
55203;DHT22;41077;52.956;6.796;2023-07-28T09:03:10;21.40;99.90
55203;DHT22;41077;52.956;6.796;2023-07-28T09:05:37;21.60;99.90
55203;DHT22;41077;52.956;6.796;2023-07-28T09:08:03;21.80;99.90
55203;DHT22;41077;52.956;6.796;2023-07-28T09:10:42;21.80;99.90
55203;DHT22;41077;52.956;6.796;2023-07-28T09:13:12;22.00;99.90
55203;DHT22;41077;52.956;6.796;2023-07-28T09:15:39;21.90;99.90
55203;DHT22;41077;52.956;6.796;2023-07-28T09:18:12;21.90;99.90
55203;DHT22;41077;52.956;6.796;2023-07-28T09:20:40;22.00;99.90
55203;DHT22;41077;52.956;6.796;2023-07-28T09:23:10;22.00;99.90
55203;DHT22;41077;52.956;6.796;2023-07-28T09:25:37;21.90;99.90
55203;DHT22;41077;52.956;6.796;2023-07-28T09:28:03;21.90;99.90
55203;DHT22;41077;52.956;6.796;2023-07-28T09:30:45;21.80;99.90
55203;DHT22;41077;52.956;6.796;2023-07-28T09:33:10;21.60;99.90
55203;DHT22;41077;52.956;6.796;2023-07-28T09:35:49;21.60;99.90
55203;DHT22;41077;52.956;6.796;2023-07-28T09:38:15;21.70;99.90
55203;DHT22;41077;52.956;6.796;2023-07-28T09:40:42;21.80;99.90
55203;DHT22;41077;52.956;6.796;2023-07-28T09:43:08;22.00;99.90
55203;DHT22;41077;52.956;6.796;2023-07-28T09:45:35;22.10;99.90
55203;DHT22;41077;52.956;6.796;2023-07-28T09:48:02;22.30;99.90
55203;DHT22;41077;52.956;6.796;2023-07-28T09:50:32;22.40;99.90
55203;DHT22;41077;52.956;6.796;2023-07-28T09:53:02;22.40;99.90
55203;DHT22;41077;52.956;6.796;2023-07-28T09:55:29;22.50;99.90
55203;DHT22;41077;52.956;6.796;2023-07-28T09:57:56;22.50;99.90
55203;DHT22;41077;52.956;6.796;2023-07-28T10:00:23;22.60;99.90
55203;DHT22;41077;52.956;6.796;2023-07-28T10:02:50;22.60;99.90
55203;DHT22;41077;52.956;6.796;2023-07-28T10:05:16;22.60;99.90
55203;DHT22;41077;52.956;6.796;2023-07-28T10:07:43;22.70;99.90
55203;DHT22;41077;52.956;6.796;2023-07-28T10:10:11;22.70;99.90
55203;DHT22;41077;52.956;6.796;2023-07-28T10:15:08;22.70;99.90
55203;DHT22;41077;52.956;6.796;2023-07-28T10:17:36;22.70;99.90
55203;DHT22;41077;52.956;6.796;2023-07-28T10:20:03;22.60;99.90
55203;DHT22;41077;52.956;6.796;2023-07-28T10:22:45;22.60;99.90
55203;DHT22;41077;52.956;6.796;2023-07-28T10:25:12;22.60;99.90
55203;DHT22;41077;52.956;6.796;2023-07-28T10:27:44;22.70;99.90
55203;DHT22;41077;52.956;6.796;2023-07-28T10:30:12;22.70;99.90
55203;DHT22;41077;52.956;6.796;2023-07-28T10:32:40;22.60;99.90
55203;DHT22;41077;52.956;6.796;2023-07-28T10:35:27;22.60;99.90
55203;DHT22;41077;52.956;6.796;2023-07-28T10:37:55;22.60;99.90
55203;DHT22;41077;52.956;6.796;2023-07-28T10:40:28;22.60;99.90
55203;DHT22;41077;52.956;6.796;2023-07-28T10:42:55;22.80;99.90
55203;DHT22;41077;52.956;6.796;2023-07-28T10:45:26;22.90;99.90
55203;DHT22;41077;52.956;6.796;2023-07-28T10:47:53;22.80;99.90
55203;DHT22;41077;52.956;6.796;2023-07-28T10:50:21;22.80;99.90
55203;DHT22;41077;52.956;6.796;2023-07-28T10:52:47;22.70;99.90
55203;DHT22;41077;52.956;6.796;2023-07-28T10:55:18;22.70;99.90
55203;DHT22;41077;52.956;6.796;2023-07-28T10:57:46;22.70;99.90
55203;DHT22;41077;52.956;6.796;2023-07-28T11:00:14;22.90;99.90
55203;DHT22;41077;52.956;6.796;2023-07-28T11:02:52;23.10;99.90
55203;DHT22;41077;52.956;6.796;2023-07-28T11:05:27;23.30;99.90
55203;DHT22;41077;52.956;6.796;2023-07-28T11:07:57;23.50;99.90
55203;DHT22;41077;52.956;6.796;2023-07-28T11:10:24;23.70;99.90
55203;DHT22;41077;52.956;6.796;2023-07-28T11:12:51;23.70;99.90
55203;DHT22;41077;52.956;6.796;2023-07-28T11:15:18;23.90;99.90
55203;DHT22;41077;52.956;6.796;2023-07-28T11:17:51;23.80;99.90
55203;DHT22;41077;52.956;6.796;2023-07-28T11:20:18;23.70;99.90
55203;DHT22;41077;52.956;6.796;2023-07-28T11:22:58;23.70;99.90
55203;DHT22;41077;52.956;6.796;2023-07-28T11:25:25;23.80;99.90
55203;DHT22;41077;52.956;6.796;2023-07-28T11:27:52;23.90;99.90
55203;DHT22;41077;52.956;6.796;2023-07-28T11:30:19;23.90;99.90
55203;DHT22;41077;52.956;6.796;2023-07-28T11:32:47;24.00;99.90
55203;DHT22;41077;52.956;6.796;2023-07-28T11:35:14;24.00;99.90
55203;DHT22;41077;52.956;6.796;2023-07-28T11:37:42;24.10;99.90
55203;DHT22;41077;52.956;6.796;2023-07-28T11:40:09;24.10;99.90
55203;DHT22;41077;52.956;6.796;2023-07-28T11:42:46;24.20;99.90
55203;DHT22;41077;52.956;6.796;2023-07-28T11:45:13;24.10;99.90
55203;DHT22;41077;52.956;6.796;2023-07-28T11:48:04;24.00;99.90
55203;DHT22;41077;52.956;6.796;2023-07-28T11:50:37;23.90;99.90
55203;DHT22;41077;52.956;6.796;2023-07-28T11:53:04;23.70;99.90
55203;DHT22;41077;52.956;6.796;2023-07-28T11:55:30;23.50;99.90
55203;DHT22;41077;52.956;6.796;2023-07-28T11:57:56;23.50;99.90
55203;DHT22;41077;52.956;6.796;2023-07-28T12:00:29;23.40;99.90
55203;DHT22;41077;52.956;6.796;2023-07-28T12:05:29;23.20;99.90
55203;DHT22;41077;52.956;6.796;2023-07-28T12:07:55;23.00;99.90
55203;DHT22;41077;52.956;6.796;2023-07-28T12:10:20;23.00;99.90
55203;DHT22;41077;52.956;6.796;2023-07-28T12:12:46;23.00;99.90
55203;DHT22;41077;52.956;6.796;2023-07-28T12:15:26;22.90;99.90
55203;DHT22;41077;52.956;6.796;2023-07-28T12:18:14;23.00;99.90
55203;DHT22;41077;52.956;6.796;2023-07-28T12:20:42;23.20;99.90
55203;DHT22;41077;52.956;6.796;2023-07-28T12:23:13;23.30;99.90
55203;DHT22;41077;52.956;6.796;2023-07-28T12:25:38;23.20;99.90
55203;DHT22;41077;52.956;6.796;2023-07-28T12:28:05;23.40;99.90
55203;DHT22;41077;52.956;6.796;2023-07-28T12:30:34;23.60;99.90
55203;DHT22;41077;52.956;6.796;2023-07-28T12:33:00;24.00;99.90
55203;DHT22;41077;52.956;6.796;2023-07-28T12:35:27;24.30;99.90
55203;DHT22;41077;52.956;6.796;2023-07-28T12:37:57;24.40;99.90
55203;DHT22;41077;52.956;6.796;2023-07-28T12:40:25;24.60;99.90
55203;DHT22;41077;52.956;6.796;2023-07-28T12:42:51;24.50;99.90
55203;DHT22;41077;52.956;6.796;2023-07-28T12:45:17;24.50;99.90
55203;DHT22;41077;52.956;6.796;2023-07-28T12:47:43;24.60;99.90
55203;DHT22;41077;52.956;6.796;2023-07-28T12:50:09;25.00;99.90
55203;DHT22;41077;52.956;6.796;2023-07-28T12:52:36;25.40;99.90
55203;DHT22;41077;52.956;6.796;2023-07-28T12:55:02;25.60;99.90
55203;DHT22;41077;52.956;6.796;2023-07-28T12:57:28;25.50;99.90
55203;DHT22;41077;52.956;6.796;2023-07-28T12:59:54;25.20;99.90
55203;DHT22;41077;52.956;6.796;2023-07-28T13:02:19;25.10;99.90
55203;DHT22;41077;52.956;6.796;2023-07-28T13:04:45;25.00;99.90
55203;DHT22;41077;52.956;6.796;2023-07-28T13:07:11;24.70;99.90
55203;DHT22;41077;52.956;6.796;2023-07-28T13:09:37;24.60;99.90
55203;DHT22;41077;52.956;6.796;2023-07-28T13:12:03;24.40;99.90
55203;DHT22;41077;52.956;6.796;2023-07-28T13:14:28;24.20;99.90
55203;DHT22;41077;52.956;6.796;2023-07-28T13:16:54;23.90;99.90
55203;DHT22;41077;52.956;6.796;2023-07-28T13:19:20;23.80;99.90
55203;DHT22;41077;52.956;6.796;2023-07-28T13:21:45;23.60;99.90
55203;DHT22;41077;52.956;6.796;2023-07-28T13:24:11;23.80;99.90
55203;DHT22;41077;52.956;6.796;2023-07-28T13:26:37;23.80;99.90
55203;DHT22;41077;52.956;6.796;2023-07-28T13:29:02;23.90;99.90
55203;DHT22;41077;52.956;6.796;2023-07-28T13:31:32;23.80;99.90
55203;DHT22;41077;52.956;6.796;2023-07-28T13:33:58;23.80;99.90
55203;DHT22;41077;52.956;6.796;2023-07-28T13:36:24;23.80;99.90
55203;DHT22;41077;52.956;6.796;2023-07-28T13:38:49;23.90;99.90
55203;DHT22;41077;52.956;6.796;2023-07-28T13:41:15;24.00;99.90
55203;DHT22;41077;52.956;6.796;2023-07-28T13:43:41;24.10;99.90
55203;DHT22;41077;52.956;6.796;2023-07-28T13:46:07;24.30;99.90
55203;DHT22;41077;52.956;6.796;2023-07-28T13:48:33;24.30;99.90
55203;DHT22;41077;52.956;6.796;2023-07-28T13:51:01;24.30;99.90
55203;DHT22;41077;52.956;6.796;2023-07-28T13:53:27;24.40;99.90
55203;DHT22;41077;52.956;6.796;2023-07-28T13:55:54;24.40;99.90
55203;DHT22;41077;52.956;6.796;2023-07-28T13:58:20;24.40;99.90
55203;DHT22;41077;52.956;6.796;2023-07-28T14:00:46;24.30;99.90
55203;DHT22;41077;52.956;6.796;2023-07-28T14:03:12;24.30;99.90
55203;DHT22;41077;52.956;6.796;2023-07-28T14:05:38;24.20;99.90
55203;DHT22;41077;52.956;6.796;2023-07-28T14:08:04;24.20;99.90
55203;DHT22;41077;52.956;6.796;2023-07-28T14:10:29;24.20;99.90
55203;DHT22;41077;52.956;6.796;2023-07-28T14:12:57;24.10;99.90
55203;DHT22;41077;52.956;6.796;2023-07-28T14:15:23;24.10;99.90
55203;DHT22;41077;52.956;6.796;2023-07-28T14:17:49;24.00;99.90
55203;DHT22;41077;52.956;6.796;2023-07-28T14:20:15;24.10;99.90
55203;DHT22;41077;52.956;6.796;2023-07-28T14:22:41;24.10;99.90
55203;DHT22;41077;52.956;6.796;2023-07-28T14:25:07;24.10;99.90
55203;DHT22;41077;52.956;6.796;2023-07-28T14:27:32;23.90;99.90
55203;DHT22;41077;52.956;6.796;2023-07-28T14:29:58;24.00;99.90
55203;DHT22;41077;52.956;6.796;2023-07-28T14:32:24;23.90;99.90
55203;DHT22;41077;52.956;6.796;2023-07-28T14:34:49;23.70;99.90
55203;DHT22;41077;52.956;6.796;2023-07-28T14:37:15;23.70;99.90
55203;DHT22;41077;52.956;6.796;2023-07-28T14:39:41;23.80;99.90
55203;DHT22;41077;52.956;6.796;2023-07-28T14:42:06;24.10;99.90
55203;DHT22;41077;52.956;6.796;2023-07-28T14:44:32;24.10;99.90
55203;DHT22;41077;52.956;6.796;2023-07-28T14:46:58;24.00;99.90
55203;DHT22;41077;52.956;6.796;2023-07-28T14:49:23;24.10;99.90
55203;DHT22;41077;52.956;6.796;2023-07-28T14:51:56;24.20;99.90
55203;DHT22;41077;52.956;6.796;2023-07-28T14:54:21;24.30;99.90
55203;DHT22;41077;52.956;6.796;2023-07-28T14:56:47;24.40;99.90
55203;DHT22;41077;52.956;6.796;2023-07-28T14:59:13;24.30;99.90
55203;DHT22;41077;52.956;6.796;2023-07-28T15:01:38;24.30;99.90
55203;DHT22;41077;52.956;6.796;2023-07-28T15:04:04;24.30;99.90
55203;DHT22;41077;52.956;6.796;2023-07-28T15:06:30;24.20;99.90
55203;DHT22;41077;52.956;6.796;2023-07-28T15:08:56;24.20;99.90
55203;DHT22;41077;52.956;6.796;2023-07-28T15:11:22;24.10;99.90
55203;DHT22;41077;52.956;6.796;2023-07-28T15:13:49;24.10;99.90
55203;DHT22;41077;52.956;6.796;2023-07-28T15:16:15;24.20;99.90
55203;DHT22;41077;52.956;6.796;2023-07-28T15:18:40;24.20;99.90
55203;DHT22;41077;52.956;6.796;2023-07-28T15:21:06;24.20;99.90
55203;DHT22;41077;52.956;6.796;2023-07-28T15:23:32;24.20;99.90
55203;DHT22;41077;52.956;6.796;2023-07-28T15:25:57;24.40;99.90
55203;DHT22;41077;52.956;6.796;2023-07-28T15:28:24;24.40;99.90
55203;DHT22;41077;52.956;6.796;2023-07-28T15:30:50;24.40;99.90
55203;DHT22;41077;52.956;6.796;2023-07-28T15:33:20;24.40;99.90
55203;DHT22;41077;52.956;6.796;2023-07-28T15:35:47;24.40;99.90
55203;DHT22;41077;52.956;6.796;2023-07-28T15:38:14;24.40;99.90